Time;durP1;ratioP1;P1;durP2;ratioP2;P2;SDS_P1;SDS_P2;PMS_P1;PMS_P2;Temp;Humidity;BMP_temperature;BMP_pressure;BME280_temperature;BME280_humidity;BME280_pressure;Samples;Min_cycle;Max_cycle;Signal;HPM_P1;HPM_P2
2021/12/27 00:00:26;;;;;;;5.07;2.92;;;;;;;-10.26;62.15;98155.69;5072120;28;20032;-55
2021/12/27 00:02:56;;;;;;;4.15;2.38;;;;;;;-10.34;62.28;98162.31;5074061;28;20045;-57
2021/12/27 00:05:22;;;;;;;4.60;2.47;;;;;;;-10.22;63.04;98167.28;5082319;28;20572;-57
2021/12/27 00:07:50;;;;;;;8.48;3.45;;;;;;;-10.11;62.20;98170.50;5074079;28;20136;-56
2021/12/27 00:10:17;;;;;;;3.67;2.60;;;;;;;-10.05;62.56;98181.97;5088114;28;20472;-56
2021/12/27 00:12:43;;;;;;;4.45;2.95;;;;;;;-9.98;62.50;98187.34;5073879;28;20083;-55
2021/12/27 00:15:09;;;;;;;4.55;2.40;;;;;;;-9.94;62.27;98181.00;5072435;28;20520;-54
2021/12/27 00:17:36;;;;;;;4.47;2.17;;;;;;;-10.08;61.63;98183.06;5055526;28;20097;-57
2021/12/27 00:20:06;;;;;;;4.97;3.17;;;;;;;-10.06;61.59;98186.28;5083290;28;20043;-54
2021/12/27 00:22:32;;;;;;;2.78;2.13;;;;;;;-10.02;61.90;98189.38;5074404;28;20044;-54
2021/12/27 00:24:58;;;;;;;8.80;2.85;;;;;;;-10.03;62.21;98195.44;5073312;28;20177;-57
2021/12/27 00:27:24;;;;;;;4.22;2.47;;;;;;;-10.14;61.98;98195.59;5073267;28;20136;-55
2021/12/27 00:29:52;;;;;;;3.35;2.67;;;;;;;-10.17;62.92;98186.44;5092169;28;20047;-56
2021/12/27 00:32:19;;;;;;;4.43;2.47;;;;;;;-10.26;61.96;98187.25;5075783;28;20048;-56
2021/12/27 00:34:44;;;;;;;6.50;3.05;;;;;;;-10.33;61.59;98181.84;5055220;28;20063;-54
2021/12/27 00:37:10;;;;;;;7.00;2.72;;;;;;;-10.44;62.08;98178.63;5073258;28;20037;-57
2021/12/27 00:39:36;;;;;;;5.30;2.90;;;;;;;-10.50;62.05;98189.41;5085645;28;20040;-56
2021/12/27 00:42:03;;;;;;;5.90;3.00;;;;;;;-10.53;62.38;98183.63;5077896;28;20044;-55
2021/12/27 00:44:29;;;;;;;4.43;3.25;;;;;;;-10.57;62.61;98184.00;5073293;28;20418;-55
2021/12/27 00:46:55;;;;;;;4.65;2.78;;;;;;;-10.62;63.12;98186.97;5073831;28;20177;-56
2021/12/27 00:49:21;;;;;;;2.47;2.00;;;;;;;-10.70;62.18;98188.59;5093463;28;20059;-55
2021/12/27 00:51:47;;;;;;;5.30;2.55;;;;;;;-10.70;62.97;98191.97;5078737;28;20671;-56
2021/12/27 00:54:14;;;;;;;6.65;3.33;;;;;;;-10.76;63.74;98188.16;5071581;28;20076;-54
2021/12/27 00:56:40;;;;;;;6.63;2.90;;;;;;;-10.77;63.29;98193.41;5071359;28;20040;-55
2021/12/27 00:59:05;;;;;;;5.28;3.38;;;;;;;-10.78;63.90;98197.72;5072719;28;20090;-58
2021/12/27 01:01:31;;;;;;;3.88;2.33;;;;;;;-10.89;63.50;98197.03;5072343;28;20455;-54
2021/12/27 01:03:59;;;;;;;5.35;2.47;;;;;;;-10.83;63.43;98206.72;5073868;28;20043;-55
2021/12/27 01:06:26;;;;;;;4.43;2.78;;;;;;;-10.80;63.59;98214.16;5071190;28;20113;-55
2021/12/27 01:08:52;;;;;;;4.07;2.50;;;;;;;-10.73;63.71;98224.66;5072678;28;20040;-57
2021/12/27 01:14:00;;;;;;;4.60;2.90;;;;;;;-10.71;63.30;98213.34;5072312;28;20051;-56
2021/12/27 01:16:26;;;;;;;4.57;3.08;;;;;;;-10.64;63.94;98229.84;5074194;28;20051;-55
2021/12/27 01:18:52;;;;;;;5.07;3.13;;;;;;;-10.64;63.28;98218.78;5091388;28;20048;-55
2021/12/27 01:21:20;;;;;;;6.00;2.95;;;;;;;-10.68;63.07;98228.47;5083280;28;20047;-56
2021/12/27 01:23:47;;;;;;;7.28;3.33;;;;;;;-10.70;63.96;98227.00;5072668;28;20071;-57
2021/12/27 01:26:13;;;;;;;7.60;3.67;;;;;;;-10.83;63.31;98230.56;5076479;28;20053;-56
2021/12/27 01:28:39;;;;;;;6.38;3.03;;;;;;;-10.85;63.92;98235.03;5077563;28;20147;-55
2021/12/27 01:31:05;;;;;;;4.30;3.13;;;;;;;-10.75;64.16;98235.88;5084802;28;20127;-54
2021/12/27 01:33:31;;;;;;;4.65;2.83;;;;;;;-10.84;63.92;98239.22;5082727;28;20146;-56
2021/12/27 01:35:57;;;;;;;8.27;3.05;;;;;;;-10.72;63.93;98239.91;5083624;28;20505;-54
2021/12/27 01:38:23;;;;;;;4.65;3.00;;;;;;;-10.65;63.59;98246.13;5072284;28;20538;-57
2021/12/27 01:40:54;;;;;;;6.20;2.90;;;;;;;-10.68;63.52;98245.59;5071619;28;20135;-57
2021/12/27 01:43:25;;;;;;;3.83;2.80;;;;;;;-10.70;63.16;98248.28;5071932;28;20147;-56
2021/12/27 01:45:55;;;;;;;5.00;2.97;;;;;;;-10.73;64.02;98253.66;5075370;28;20310;-56
2021/12/27 01:48:23;;;;;;;;;;;;;;;-10.71;63.72;98251.78;5072577;28;20048;-55
2021/12/27 01:50:51;;;;;;;4.72;2.80;;;;;;;-10.76;63.88;98253.94;5071812;28;19924;-55
2021/12/27 01:53:18;;;;;;;7.25;2.50;;;;;;;-10.75;64.55;98261.47;5072177;28;20060;-57
2021/12/27 01:55:45;;;;;;;6.75;3.35;;;;;;;-10.76;63.49;98259.84;5069938;28;20055;-56
2021/12/27 01:58:11;;;;;;;4.75;2.85;;;;;;;-10.75;63.65;98266.59;5071552;28;20505;-56
2021/12/27 02:00:39;;;;;;;3.50;2.70;;;;;;;-10.88;64.18;98273.69;5071249;28;20047;-56
2021/12/27 02:03:05;;;;;;;6.07;3.03;;;;;;;-10.77;64.58;98276.13;5073878;28;20418;-55
2021/12/27 02:05:31;;;;;;;4.78;2.90;;;;;;;-10.73;64.04;98275.88;5088954;28;20066;-52
2021/12/27 02:07:57;;;;;;;5.53;3.47;;;;;;;-10.63;64.77;98286.97;5071786;28;20048;-55
2021/12/27 02:10:23;;;;;;;4.10;2.65;;;;;;;-10.59;63.86;98283.19;5069924;28;20044;-54
2021/12/27 02:12:50;;;;;;;5.93;2.72;;;;;;;-10.62;63.76;98286.03;5071714;28;20045;-55
2021/12/27 02:15:16;;;;;;;5.25;2.90;;;;;;;-10.46;63.42;98275.31;5086930;28;20044;-56
2021/12/27 02:17:43;;;;;;;4.30;2.80;;;;;;;-10.36;63.73;98286.38;5080132;28;20040;-55
2021/12/27 02:20:20;;;;;;;7.85;3.08;;;;;;;-10.24;63.21;98285.28;5091235;28;20113;-55
2021/12/27 02:22:48;;;;;;;7.28;3.15;;;;;;;-10.14;63.08;98298.13;5071690;28;20048;-56
2021/12/27 02:25:14;;;;;;;5.85;3.10;;;;;;;-10.18;62.63;98289.06;5071069;28;20307;-56
2021/12/27 02:27:43;;;;;;;6.10;3.00;;;;;;;-10.01;63.22;98296.09;5071644;28;20037;-55
2021/12/27 02:30:10;;;;;;;5.47;2.50;;;;;;;-10.00;63.04;98302.84;5071120;28;20078;-57
2021/12/27 02:32:57;;;;;;;4.65;2.60;;;;;;;-9.91;63.57;98296.94;5070743;28;20197;-56
2021/12/27 02:35:26;;;;;;;4.32;2.50;;;;;;;-9.92;62.80;98302.97;5070914;28;20040;-57
2021/12/27 02:37:53;;;;;;;6.07;3.17;;;;;;;-9.93;62.37;98303.13;5081451;28;20048;-57
2021/12/27 02:40:21;;;;;;;8.45;3.72;;;;;;;-9.91;63.30;98301.22;5090149;28;20589;-56
2021/12/27 02:43:01;;;;;;;5.32;3.03;;;;;;;-9.81;63.31;98312.31;5086320;28;20036;-58
2021/12/27 02:45:29;;;;;;;5.45;2.88;;;;;;;-9.68;63.23;98325.66;5089132;28;20043;-54
2021/12/27 02:47:55;;;;;;;5.18;3.05;;;;;;;-9.65;62.39;98306.63;5069914;28;20048;-55
2021/12/27 02:50:22;;;;;;;4.70;3.08;;;;;;;-9.60;63.70;98314.72;5070688;28;20048;-56
2021/12/27 02:52:47;;;;;;;5.78;2.33;;;;;;;-9.68;62.45;98319.72;5083176;28;20127;-56
2021/12/27 02:55:15;;;;;;;3.72;2.63;;;;;;;-9.71;62.98;98328.50;5086830;28;21000;-57
2021/12/27 02:57:43;;;;;;;4.47;3.10;;;;;;;-9.65;63.65;98337.41;5071316;28;20044;-57
2021/12/27 03:00:18;;;;;;;7.30;3.15;;;;;;;-9.55;62.66;98337.44;5070330;28;20102;-55
2021/12/27 03:02:46;;;;;;;4.72;3.08;;;;;;;-9.73;62.09;98327.03;5071144;28;20413;-55
2021/12/27 03:05:14;;;;;;;5.93;3.42;;;;;;;-9.66;62.49;98338.34;5071156;28;20127;-57
2021/12/27 03:07:40;;;;;;;7.50;3.53;;;;;;;-9.65;63.46;98343.34;5071128;28;20076;-57
2021/12/27 03:10:08;;;;;;;8.00;3.63;;;;;;;-9.65;62.71;98350.22;5071049;28;20044;-55
2021/12/27 03:12:34;;;;;;;5.45;3.20;;;;;;;-9.64;62.99;98344.97;5070779;28;20064;-57
2021/12/27 03:15:00;;;;;;;6.93;3.40;;;;;;;-9.56;63.48;98353.75;5090558;28;20044;-55
2021/12/27 03:17:25;;;;;;;5.97;3.05;;;;;;;-9.44;63.84;98363.75;5072388;28;20481;-56
2021/12/27 03:19:51;;;;;;;5.63;3.58;;;;;;;-9.43;61.99;98362.81;5069435;28;20037;-56
2021/12/27 03:22:17;;;;;;;5.68;3.03;;;;;;;-9.41;62.79;98375.47;5079931;28;20048;-55
2021/12/27 03:24:43;;;;;;;5.85;2.90;;;;;;;-9.38;63.06;98380.38;5090868;28;20040;-56
2021/12/27 03:27:08;;;;;;;7.20;3.55;;;;;;;-9.38;62.85;98373.47;5073394;28;20079;-55
2021/12/27 03:29:34;;;;;;;4.93;3.17;;;;;;;-9.47;63.17;98386.28;5069436;28;20063;-55
2021/12/27 03:32:00;;;;;;;7.40;3.50;;;;;;;-9.42;63.62;98390.06;5072184;28;20048;-56
2021/12/27 03:34:26;;;;;;;5.20;3.42;;;;;;;-9.53;62.28;98382.50;5093039;28;20060;-56
2021/12/27 03:36:51;;;;;;;4.35;3.42;;;;;;;-9.50;63.97;98384.00;5080083;28;20395;-57
2021/12/27 03:39:17;;;;;;;7.18;3.47;;;;;;;-9.44;63.06;98393.72;5074361;28;20124;-56
2021/12/27 03:41:44;;;;;;;5.90;3.03;;;;;;;-9.41;62.22;98391.72;5083373;28;20074;-55
2021/12/27 03:44:09;;;;;;;6.32;3.13;;;;;;;-9.33;63.94;98401.28;5094436;28;20413;-57
2021/12/27 03:46:35;;;;;;;6.43;4.07;;;;;;;-9.24;63.54;98407.34;5082511;28;20044;-55
2021/12/27 03:49:01;;;;;;;7.93;3.50;;;;;;;-9.17;63.10;98411.81;5074350;28;20395;-55
2021/12/27 03:51:27;;;;;;;11.07;3.05;;;;;;;-9.13;63.51;98411.56;5078102;28;20058;-55
2021/12/27 03:53:53;;;;;;;9.10;3.78;;;;;;;-9.08;63.54;98423.03;5094077;28;20048;-55
2021/12/27 03:56:23;;;;;;;7.47;3.53;;;;;;;-9.12;63.05;98424.22;5084547;28;20062;-58
2021/12/27 03:58:59;;;;;;;4.80;3.20;;;;;;;-9.10;62.06;98430.06;5072609;28;20482;-55
2021/12/27 04:01:26;;;;;;;6.13;3.40;;;;;;;-9.07;61.71;98429.78;5078642;28;20044;-54
2021/12/27 04:03:55;;;;;;;5.32;3.10;;;;;;;-9.06;62.88;98430.59;5072490;28;20049;-56
2021/12/27 04:06:22;;;;;;;4.35;3.17;;;;;;;-9.10;61.96;98434.38;5073427;28;20561;-55
2021/12/27 04:08:48;;;;;;;6.03;3.30;;;;;;;-9.13;62.72;98439.78;5074199;28;20136;-57
2021/12/27 04:11:15;;;;;;;6.50;3.35;;;;;;;-9.14;63.09;98444.13;5075774;28;20115;-57
2021/12/27 04:13:41;;;;;;;10.50;4.93;;;;;;;-9.17;61.70;98452.91;5072589;28;20048;-57
2021/12/27 04:16:07;;;;;;;7.82;4.47;;;;;;;-9.11;62.13;98443.84;5075956;28;20417;-58
2021/12/27 04:18:32;;;;;;;5.10;3.88;;;;;;;-9.07;62.96;98446.94;5073870;28;20051;-53
2021/12/27 04:20:58;;;;;;;4.97;3.55;;;;;;;-9.14;61.78;98446.69;5083828;28;20049;-55
2021/12/27 04:23:24;;;;;;;9.93;3.58;;;;;;;-9.04;62.21;98446.69;5077747;28;20078;-60
2021/12/27 04:25:50;;;;;;;9.75;4.60;;;;;;;-9.01;61.80;98444.63;5088294;28;20033;-56
2021/12/27 04:28:17;;;;;;;5.32;3.10;;;;;;;-9.21;61.87;98445.59;5082493;28;20093;-53
2021/12/27 04:30:43;;;;;;;7.35;3.33;;;;;;;-9.33;61.95;98455.19;5076937;28;20087;-53
2021/12/27 04:33:09;;;;;;;6.03;3.15;;;;;;;-9.36;61.16;98455.44;5071683;28;20430;-55
2021/12/27 04:35:35;;;;;;;6.40;3.47;;;;;;;-9.23;62.93;98466.28;5073119;28;20037;-55
2021/12/27 04:38:01;;;;;;;7.00;3.65;;;;;;;-9.12;62.36;98457.59;5076175;28;20116;-56
2021/12/27 04:40:30;;;;;;;5.50;3.63;;;;;;;-9.10;62.74;98467.75;5090431;28;20032;-56
2021/12/27 04:43:00;;;;;;;5.85;3.35;;;;;;;-9.06;62.13;98469.09;5071460;28;20048;-55
2021/12/27 04:45:26;;;;;;;7.63;3.95;;;;;;;-9.24;61.82;98464.63;5072951;28;20052;-57
2021/12/27 04:47:51;;;;;;;7.63;3.40;;;;;;;-9.27;62.28;98464.91;5054949;28;20103;-58
2021/12/27 04:50:17;;;;;;;6.60;3.80;;;;;;;-9.29;62.43;98471.09;5066997;28;20090;-55
2021/12/27 04:52:45;;;;;;;6.35;3.63;;;;;;;-9.26;61.48;98476.00;5072432;28;20502;-55
2021/12/27 04:55:11;;;;;;;5.57;3.67;;;;;;;-9.29;62.63;98479.66;5072498;28;20143;-58
2021/12/27 04:57:36;;;;;;;9.18;3.45;;;;;;;-9.28;62.23;98477.88;5078543;28;20166;-54
2021/12/27 05:00:05;;;;;;;5.93;3.40;;;;;;;-9.27;62.51;98482.06;5083315;28;20036;-57
2021/12/27 05:02:31;;;;;;;4.35;2.88;;;;;;;-9.37;61.29;98482.88;5071602;28;20041;-57
2021/12/27 05:04:56;;;;;;;6.38;3.60;;;;;;;-9.41;62.51;98478.13;5071440;28;20040;-55
2021/12/27 05:07:22;;;;;;;6.70;3.30;;;;;;;-9.38;62.33;98483.81;5071159;28;20045;-58
2021/12/27 05:09:48;;;;;;;6.13;3.75;;;;;;;-9.32;62.08;98485.03;5072644;28;20047;-58
2021/12/27 05:12:14;;;;;;;7.95;3.40;;;;;;;-9.22;61.83;98487.63;5071354;28;20131;-56
2021/12/27 05:14:40;;;;;;;7.43;3.45;;;;;;;-9.40;61.21;98488.25;5071704;28;20086;-59
2021/12/27 05:17:05;;;;;;;4.32;3.03;;;;;;;-9.47;62.34;98496.63;5071920;28;20041;-59
2021/12/27 05:19:31;;;;;;;8.93;3.83;;;;;;;-9.48;61.74;98505.25;5070948;28;20383;-59
2021/12/27 05:21:57;;;;;;;7.03;3.47;;;;;;;-9.48;63.10;98497.56;5071899;28;20214;-57
2021/12/27 05:24:26;;;;;;;6.05;3.42;;;;;;;-9.38;62.44;98506.91;5071977;28;20040;-59
2021/12/27 05:26:52;;;;;;;7.03;3.78;;;;;;;-9.40;62.55;98505.41;5071890;28;20544;-55
2021/12/27 05:29:18;;;;;;;7.07;3.88;;;;;;;-9.37;62.57;98511.09;5072042;28;20122;-58
2021/12/27 05:31:44;;;;;;;7.68;3.90;;;;;;;-9.39;61.63;98525.00;5070342;28;20044;-60
2021/12/27 05:34:10;;;;;;;7.80;3.53;;;;;;;-9.49;62.15;98514.72;5071691;28;20098;-59
2021/12/27 05:36:36;;;;;;;6.40;3.65;;;;;;;-9.51;61.60;98528.63;5069572;28;20117;-56
2021/12/27 05:39:04;;;;;;;6.07;3.58;;;;;;;-9.59;61.95;98516.44;5068509;28;20044;-58
2021/12/27 05:41:30;;;;;;;5.63;3.38;;;;;;;-9.57;62.54;98535.09;5068709;28;20041;-59
2021/12/27 05:43:56;;;;;;;6.05;3.40;;;;;;;-9.46;61.83;98545.25;5070855;28;20037;-62
2021/12/27 05:46:22;;;;;;;6.68;3.40;;;;;;;-9.33;62.74;98541.63;5075756;28;20465;-57
2021/12/27 05:48:47;;;;;;;8.13;3.92;;;;;;;-9.37;62.28;98539.31;5087587;28;20089;-59
2021/12/27 05:51:13;;;;;;;5.30;3.05;;;;;;;-9.38;62.17;98540.28;5078149;28;20036;-56
2021/12/27 05:53:39;;;;;;;5.28;3.70;;;;;;;-9.43;62.17;98547.56;5067912;28;20052;-59
2021/12/27 05:56:05;;;;;;;9.98;4.10;;;;;;;-9.47;62.24;98553.06;5078028;28;20560;-57
2021/12/27 05:58:30;;;;;;;3.95;2.92;;;;;;;-9.48;61.97;98556.59;5069248;28;20406;-58
2021/12/27 06:00:56;;;;;;;6.95;3.30;;;;;;;-9.60;61.75;98548.97;5070012;28;20082;-59
2021/12/27 06:03:22;;;;;;;11.18;3.72;;;;;;;-9.55;62.17;98548.59;5070115;28;20064;-59
2021/12/27 06:05:48;;;;;;;9.25;3.67;;;;;;;-9.58;63.50;98558.31;5075980;28;20518;-57
2021/12/27 06:08:14;;;;;;;5.18;3.00;;;;;;;-9.57;62.35;98565.06;5035537;28;20110;-57
2021/12/27 06:10:40;;;;;;;5.57;3.03;;;;;;;-9.48;62.68;98565.09;5078651;28;20494;-57
2021/12/27 06:13:06;;;;;;;7.60;4.03;;;;;;;-9.55;62.20;98571.69;5035474;28;20052;-59
2021/12/27 06:15:32;;;;;;;6.03;3.22;;;;;;;-9.64;61.72;98567.34;5069796;28;20040;-57
2021/12/27 06:17:58;;;;;;;5.70;3.17;;;;;;;-9.59;62.26;98575.44;5068219;28;20055;-61
2021/12/27 06:20:24;;;;;;;5.32;3.00;;;;;;;-9.70;62.05;98576.38;5066644;28;20198;-53
2021/12/27 06:22:53;;;;;;;6.75;4.00;;;;;;;-9.64;62.07;98593.78;5067837;28;20389;-59
2021/12/27 06:25:18;;;;;;;6.78;3.42;;;;;;;-9.61;62.16;98592.72;5069509;28;20066;-57
2021/12/27 06:27:45;;;;;;;7.22;3.72;;;;;;;-9.64;62.70;98600.69;5062331;28;20044;-56
2021/12/27 06:30:13;;;;;;;6.38;2.92;;;;;;;-9.60;62.16;98600.28;5080798;28;20115;-57
2021/12/27 06:32:39;;;;;;;7.10;3.88;;;;;;;-9.53;62.47;98600.56;5049989;28;20102;-57
2021/12/27 06:35:06;;;;;;;4.97;3.50;;;;;;;-9.46;61.83;98604.25;5085423;28;20043;-56
2021/12/27 06:37:32;;;;;;;7.50;4.10;;;;;;;-9.55;61.91;98609.38;5070822;28;20043;-57
2021/12/27 06:39:58;;;;;;;7.57;3.53;;;;;;;-9.53;62.81;98610.84;5070166;28;20045;-57
2021/12/27 06:42:24;;;;;;;6.57;4.00;;;;;;;-9.53;62.21;98605.72;5069094;28;20055;-53
2021/12/27 06:44:51;;;;;;;6.88;4.35;;;;;;;-9.43;62.24;98614.28;5055270;28;20044;-56
2021/12/27 06:47:17;;;;;;;7.00;3.78;;;;;;;-9.38;62.35;98613.91;5075871;28;20058;-57
2021/12/27 06:49:43;;;;;;;6.00;3.55;;;;;;;-9.31;61.13;98606.47;5087573;28;20074;-55
2021/12/27 06:52:11;;;;;;;6.82;3.85;;;;;;;-9.25;61.35;98616.22;5074632;28;20109;-59
2021/12/27 06:54:38;;;;;;;6.82;3.72;;;;;;;-9.42;61.82;98602.25;5058425;28;20442;-54
2021/12/27 06:57:04;;;;;;;5.50;3.53;;;;;;;-9.56;60.70;98605.97;5063242;28;20462;-56
2021/12/27 06:59:30;;;;;;;7.20;3.90;;;;;;;-9.61;62.29;98605.56;5090448;28;20127;-55
2021/12/27 07:01:56;;;;;;;7.78;3.63;;;;;;;-9.58;62.88;98614.75;5078661;28;20048;-56
2021/12/27 07:04:22;;;;;;;8.80;3.80;;;;;;;-9.88;62.35;98618.91;5071112;28;20062;-55
2021/12/27 07:06:48;;;;;;;6.75;3.75;;;;;;;-9.96;62.37;98617.00;5067562;28;20507;-55
2021/12/27 07:09:14;;;;;;;6.78;3.42;;;;;;;-10.12;62.78;98616.59;5085997;28;20458;-55
2021/12/27 07:11:41;;;;;;;7.68;3.60;;;;;;;-10.25;62.63;98616.00;5087085;28;20405;-58
2021/12/27 07:14:07;;;;;;;7.90;3.83;;;;;;;-10.39;62.97;98614.56;5081914;28;20055;-58
2021/12/27 07:16:33;;;;;;;6.10;3.95;;;;;;;-10.31;63.38;98615.56;5065800;28;20049;-56
2021/12/27 07:18:59;;;;;;;6.47;3.63;;;;;;;-10.31;63.32;98613.00;5073100;28;20051;-57
2021/12/27 07:21:25;;;;;;;7.80;3.72;;;;;;;-10.47;62.26;98611.81;5072157;28;20521;-57
2021/12/27 07:23:50;;;;;;;8.82;3.83;;;;;;;-10.43;62.93;98606.31;5088765;28;20165;-56
2021/12/27 07:26:16;;;;;;;7.43;3.70;;;;;;;-10.48;62.87;98618.69;5071885;28;20044;-55
2021/12/27 07:28:42;;;;;;;6.13;3.53;;;;;;;-10.53;62.84;98611.38;5073332;28;20908;-58
2021/12/27 07:31:09;;;;;;;8.23;3.63;;;;;;;-10.54;63.01;98616.59;5073367;28;20040;-56
2021/12/27 07:33:36;;;;;;;7.65;3.60;;;;;;;-10.53;63.71;98626.75;5082473;28;20156;-57
2021/12/27 07:36:03;;;;;;;8.13;3.50;;;;;;;-10.60;63.30;98637.59;5088199;28;20040;-54
2021/12/27 07:38:29;;;;;;;5.95;3.33;;;;;;;-10.70;63.42;98631.59;5088004;28;20048;-54
2021/12/27 07:40:55;;;;;;;6.47;3.28;;;;;;;-10.65;63.72;98635.38;5089533;28;20047;-55
2021/12/27 07:43:21;;;;;;;10.90;4.32;;;;;;;-10.63;63.64;98640.41;5086952;28;20124;-57
2021/12/27 07:45:47;;;;;;;7.28;4.25;;;;;;;-10.64;63.40;98642.16;5092270;28;20054;-56
2021/12/27 07:48:13;;;;;;;6.20;3.55;;;;;;;-10.59;63.53;98649.44;5088499;28;20052;-57
2021/12/27 07:50:39;;;;;;;7.75;4.05;;;;;;;-10.57;63.41;98643.28;5091041;28;20509;-56
2021/12/27 07:53:05;;;;;;;6.38;3.60;;;;;;;-10.55;62.86;98643.97;5073110;28;20045;-58
2021/12/27 07:55:32;;;;;;;5.90;3.78;;;;;;;-10.59;63.26;98657.97;5074334;28;20036;-53
2021/12/27 07:57:58;;;;;;;7.38;3.60;;;;;;;-10.58;63.13;98659.59;5021705;28;20029;-54
2021/12/27 08:00:35;;;;;;;5.32;3.67;;;;;;;-10.55;63.14;98664.47;5035471;28;20044;-57
2021/12/27 08:03:02;;;;;;;6.82;3.40;;;;;;;-10.48;63.45;98658.84;5053132;28;20213;-57
2021/12/27 08:05:30;;;;;;;5.38;3.17;;;;;;;-10.55;62.35;98667.03;5075310;28;20050;-56
2021/12/27 08:07:56;;;;;;;8.93;3.35;;;;;;;-10.54;63.24;98668.66;5092132;28;20177;-56
2021/12/27 08:10:21;;;;;;;10.15;3.90;;;;;;;-10.56;63.40;98667.13;5082848;28;20118;-59
2021/12/27 08:12:47;;;;;;;7.53;3.90;;;;;;;-10.49;63.05;98670.03;5078798;28;20056;-55
2021/12/27 08:15:13;;;;;;;6.97;3.63;;;;;;;-10.45;63.56;98669.66;5071134;28;20055;-57
2021/12/27 08:17:39;;;;;;;5.50;3.25;;;;;;;-10.40;63.48;98672.69;5076415;28;20072;-53
2021/12/27 08:20:06;;;;;;;4.95;3.00;;;;;;;-10.56;63.22;98670.53;5072340;28;20498;-56
2021/12/27 08:22:32;;;;;;;6.82;2.72;;;;;;;-10.46;63.30;98664.69;5069643;28;20422;-57
2021/12/27 08:24:58;;;;;;;6.85;3.13;;;;;;;-10.54;63.24;98655.03;5070795;28;20119;-56
2021/12/27 08:27:26;;;;;;;6.53;3.03;;;;;;;-10.40;62.83;98671.88;5073339;28;20182;-57
2021/12/27 08:29:52;;;;;;;6.50;3.78;;;;;;;-10.40;62.89;98670.13;5074777;28;20048;-57
2021/12/27 08:32:18;;;;;;;6.93;3.20;;;;;;;-10.42;62.66;98666.06;5070812;28;20049;-58
2021/12/27 08:34:44;;;;;;;7.72;3.95;;;;;;;-10.33;63.21;98671.25;5050508;28;20186;-55
2021/12/27 08:37:10;;;;;;;7.32;3.30;;;;;;;-10.35;62.43;98672.31;5079176;28;20480;-58
2021/12/27 08:39:38;;;;;;;5.97;3.45;;;;;;;-10.40;62.90;98671.88;5079420;28;20037;-58
2021/12/27 08:42:07;;;;;;;4.88;3.28;;;;;;;-10.32;62.84;98670.34;5086493;28;20097;-61
2021/12/27 08:44:34;;;;;;;5.30;3.22;;;;;;;-10.38;62.90;98660.56;5084448;28;20043;-58
2021/12/27 08:47:01;;;;;;;7.07;3.92;;;;;;;-10.34;62.93;98669.63;5088495;28;20040;-59
2021/12/27 08:49:27;;;;;;;9.88;4.63;;;;;;;-10.28;63.46;98670.91;5078292;28;20040;-60
2021/12/27 08:51:52;;;;;;;5.57;3.13;;;;;;;-10.12;62.90;98667.88;5066781;28;20048;-58
2021/12/27 08:54:18;;;;;;;5.15;3.03;;;;;;;-10.15;62.14;98678.38;5067850;28;20047;-59
2021/12/27 08:56:44;;;;;;;7.03;3.60;;;;;;;-10.06;62.22;98662.25;5068062;28;20617;-58
2021/12/27 08:59:10;;;;;;;6.18;3.80;;;;;;;-9.94;62.46;98676.66;5069661;28;20040;-58
2021/12/27 09:01:36;;;;;;;5.50;3.45;;;;;;;-9.85;62.15;98681.03;5069973;28;20048;-58
2021/12/27 09:04:04;;;;;;;9.10;4.40;;;;;;;-9.75;62.02;98677.72;5068166;28;20048;-57
2021/12/27 09:06:33;;;;;;;6.93;3.53;;;;;;;-9.77;61.32;98674.44;5053254;28;20470;-57
2021/12/27 09:09:00;;;;;;;4.53;3.15;;;;;;;-9.78;62.17;98676.19;5070509;28;20044;-57
2021/12/27 09:11:26;;;;;;;6.38;3.42;;;;;;;-9.80;61.54;98682.41;5067461;28;20045;-57
2021/12/27 09:13:51;;;;;;;7.30;4.20;;;;;;;-9.75;61.96;98687.97;5069866;28;20047;-60
2021/12/27 09:16:17;;;;;;;6.47;4.30;;;;;;;-9.77;61.25;98682.94;5069448;28;20043;-58
2021/12/27 09:18:43;;;;;;;5.40;3.58;;;;;;;-9.83;61.80;98689.38;5070286;28;20083;-56
2021/12/27 09:21:09;;;;;;;7.90;4.03;;;;;;;-9.85;62.17;98688.72;5070347;28;20036;-58
2021/12/27 09:23:35;;;;;;;10.90;4.30;;;;;;;-9.87;62.14;98674.41;5067679;28;20518;-58
2021/12/27 09:26:01;;;;;;;6.90;4.03;;;;;;;-9.81;62.75;98679.03;5069211;28;20043;-56
2021/12/27 09:28:27;;;;;;;9.65;4.88;;;;;;;-9.78;61.52;98683.09;5071003;28;20040;-57
2021/12/27 09:30:53;;;;;;;7.50;4.13;;;;;;;-9.84;62.63;98682.66;5069729;28;20414;-59
2021/12/27 09:33:18;;;;;;;11.90;3.78;;;;;;;-9.77;62.88;98684.72;5066729;28;20064;-59
2021/12/27 09:35:45;;;;;;;6.32;3.38;;;;;;;-9.68;62.29;98682.19;5065723;28;20040;-59
2021/12/27 09:38:11;;;;;;;6.88;4.25;;;;;;;-9.55;61.92;98684.56;5069860;28;20045;-58
2021/12/27 09:40:38;;;;;;;7.07;3.38;;;;;;;-9.51;61.74;98688.50;5070918;28;20150;-59
2021/12/27 09:43:03;;;;;;;7.25;3.72;;;;;;;-9.54;61.84;98693.09;5071634;28;20048;-59
2021/12/27 09:45:29;;;;;;;7.85;4.57;;;;;;;-9.60;62.41;98696.97;5069074;28;20041;-56
2021/12/27 09:47:55;;;;;;;7.03;4.03;;;;;;;-9.46;62.51;98703.53;5069942;28;20495;-58
2021/12/27 09:50:29;;;;;;;7.55;3.88;;;;;;;-9.29;62.35;98704.69;5072801;28;20101;-61
2021/12/27 09:52:56;;;;;;;9.35;3.85;;;;;;;-9.33;61.08;98704.13;5061941;28;20158;-57
2021/12/27 09:55:22;;;;;;;5.50;3.40;;;;;;;-9.31;61.81;98701.44;5049104;28;20623;-58
2021/12/27 09:57:48;;;;;;;8.93;4.28;;;;;;;-9.25;61.87;98700.94;5069236;28;20044;-59
2021/12/27 10:00:17;;;;;;;9.00;4.20;;;;;;;-9.27;62.33;98713.88;5081879;28;20652;-56
2021/12/27 10:02:45;;;;;;;9.77;5.03;;;;;;;-9.11;62.63;98707.47;5086871;28;20052;-59
2021/12/27 10:05:13;;;;;;;6.28;4.05;;;;;;;-9.06;61.50;98707.88;5077224;28;20512;-57
2021/12/27 10:07:41;;;;;;;8.00;4.40;;;;;;;-8.96;61.27;98712.13;5088430;28;20059;-58
2021/12/27 10:10:09;;;;;;;6.32;4.00;;;;;;;-8.77;61.35;98723.41;5072489;28;20049;-60
2021/12/27 10:12:35;;;;;;;8.93;4.45;;;;;;;-8.83;60.97;98714.47;5067769;28;20221;-58
2021/12/27 10:15:05;;;;;;;6.07;3.67;;;;;;;-8.78;61.16;98716.66;5068595;28;20040;-57
2021/12/27 10:17:34;;;;;;;12.13;4.63;;;;;;;-8.71;62.13;98725.44;5083868;28;20051;-58
2021/12/27 10:20:15;;;;;;;;;;;;;;;-8.65;62.73;98726.69;5082033;28;20050;-57
2021/12/27 10:22:48;;;;;;;8.68;4.47;;;;;;;-8.64;61.10;98728.31;5033437;28;19923;-56
2021/12/27 10:25:20;;;;;;;7.97;3.90;;;;;;;-8.54;60.51;98731.72;5047945;28;20113;-56
2021/12/27 10:27:48;;;;;;;7.20;4.32;;;;;;;-8.75;61.13;98722.31;5064947;28;20041;-57
2021/12/27 10:30:17;;;;;;;8.25;4.78;;;;;;;-8.69;60.92;98724.38;5048398;28;20044;-57
2021/12/27 10:32:44;;;;;;;8.90;4.25;;;;;;;-8.63;60.75;98717.91;5048625;28;20505;-59
2021/12/27 10:35:11;;;;;;;10.02;4.57;;;;;;;-8.48;60.61;98723.47;5064545;28;20523;-58
2021/12/27 10:37:38;;;;;;;6.70;4.57;;;;;;;-8.43;60.41;98717.94;5067430;28;20040;-58
2021/12/27 10:40:06;;;;;;;8.68;4.22;;;;;;;-8.42;60.87;98722.94;5067254;28;20044;-60
2021/12/27 10:42:46;;;;;;;6.63;4.40;;;;;;;-8.57;60.51;98722.50;5067729;28;20128;-62
2021/12/27 10:45:13;;;;;;;8.45;3.60;;;;;;;-8.76;61.69;98712.19;5065277;28;20088;-63
2021/12/27 10:47:51;;;;;;;7.60;3.60;;;;;;;-8.83;61.00;98722.16;5075513;28;20048;-60
2021/12/27 10:50:19;;;;;;;6.57;4.15;;;;;;;-8.83;61.80;98716.22;5050794;28;20040;-68
2021/12/27 10:52:49;;;;;;;8.38;4.00;;;;;;;-8.79;62.23;98717.59;5067650;28;20576;-61
2021/12/27 10:55:25;;;;;;;11.45;4.97;;;;;;;-8.67;62.76;98715.75;5066357;28;20401;-62
2021/12/27 10:57:51;;;;;;;5.72;3.63;;;;;;;-8.67;62.11;98731.97;5080580;28;20126;-60
2021/12/27 11:00:19;;;;;;;8.60;3.90;;;;;;;-8.67;62.16;98731.97;5079341;28;20040;-62
2021/12/27 11:02:45;;;;;;;9.07;4.20;;;;;;;-8.69;62.27;98724.38;5086946;28;20492;-62
2021/12/27 11:05:18;;;;;;;10.45;4.85;;;;;;;-8.60;62.33;98734.81;5082130;28;20032;-63
2021/12/27 11:07:45;;;;;;;6.93;4.05;;;;;;;-8.59;62.45;98731.28;5033705;28;20107;-60
2021/12/27 11:10:11;;;;;;;7.60;4.20;;;;;;;-8.59;61.83;98736.44;5075141;28;20601;-60
2021/12/27 11:12:37;;;;;;;8.30;3.88;;;;;;;-8.63;62.19;98741.03;5089773;28;20051;-61
2021/12/27 11:15:03;;;;;;;7.95;4.10;;;;;;;-8.63;62.67;98733.31;5085475;28;20401;-60
2021/12/27 11:17:29;;;;;;;7.63;4.22;;;;;;;-8.63;62.26;98733.31;5087460;28;20257;-61
2021/12/27 11:19:55;;;;;;;9.55;4.30;;;;;;;-8.60;63.49;98738.19;5074959;28;20459;-62
2021/12/27 11:22:21;;;;;;;5.78;3.75;;;;;;;-8.47;63.46;98738.78;5050278;28;20079;-59
2021/12/27 11:24:47;;;;;;;9.07;4.00;;;;;;;-8.34;62.47;98738.50;5051342;28;20141;-63
2021/12/27 11:27:13;;;;;;;8.52;4.38;;;;;;;-8.14;62.25;98735.94;5052013;28;20131;-60
2021/12/27 11:29:39;;;;;;;7.25;3.92;;;;;;;-8.01;62.09;98739.06;5048026;28;20056;-59
2021/12/27 11:32:16;;;;;;;8.65;4.43;;;;;;;-7.92;62.22;98737.44;5070476;28;20041;-60